sensor_id;sensor_type;location;lat;lon;timestamp;P1;durP1;ratioP1;P2;durP2;ratioP2
5730;SDS011;2890;51.950;7.668;2023-08-07T00:02:23;5.87;;;5.47;;
5730;SDS011;2890;51.950;7.668;2023-08-07T00:04:49;7.27;;;5.33;;
5730;SDS011;2890;51.950;7.668;2023-08-07T00:07:15;6.37;;;5.40;;
5730;SDS011;2890;51.950;7.668;2023-08-07T00:09:43;9.93;;;5.27;;
5730;SDS011;2890;51.950;7.668;2023-08-07T00:12:09;6.20;;;5.00;;
5730;SDS011;2890;51.950;7.668;2023-08-07T00:14:36;16.00;;;5.07;;
5730;SDS011;2890;51.950;7.668;2023-08-07T00:17:03;5.87;;;5.37;;
5730;SDS011;2890;51.950;7.668;2023-08-07T00:19:32;6.17;;;4.57;;
5730;SDS011;2890;51.950;7.668;2023-08-07T00:21:58;7.37;;;5.07;;
5730;SDS011;2890;51.950;7.668;2023-08-07T00:24:25;5.40;;;4.13;;
5730;SDS011;2890;51.950;7.668;2023-08-07T00:26:51;5.60;;;3.60;;
5730;SDS011;2890;51.950;7.668;2023-08-07T00:29:18;8.37;;;4.30;;
5730;SDS011;2890;51.950;7.668;2023-08-07T00:31:44;4.33;;;3.93;;
5730;SDS011;2890;51.950;7.668;2023-08-07T00:34:11;4.50;;;3.83;;
5730;SDS011;2890;51.950;7.668;2023-08-07T00:36:38;3.97;;;3.60;;
5730;SDS011;2890;51.950;7.668;2023-08-07T00:39:05;4.10;;;3.70;;
5730;SDS011;2890;51.950;7.668;2023-08-07T00:41:32;4.17;;;3.30;;
5730;SDS011;2890;51.950;7.668;2023-08-07T00:43:59;3.60;;;3.30;;
5730;SDS011;2890;51.950;7.668;2023-08-07T00:46:26;3.87;;;3.17;;
5730;SDS011;2890;51.950;7.668;2023-08-07T00:48:52;6.33;;;3.73;;
5730;SDS011;2890;51.950;7.668;2023-08-07T00:51:19;5.23;;;3.47;;
5730;SDS011;2890;51.950;7.668;2023-08-07T00:53:48;3.33;;;3.00;;
5730;SDS011;2890;51.950;7.668;2023-08-07T00:56:14;4.60;;;3.30;;
5730;SDS011;2890;51.950;7.668;2023-08-07T00:58:41;4.57;;;3.60;;
5730;SDS011;2890;51.950;7.668;2023-08-07T01:01:08;3.97;;;3.57;;
5730;SDS011;2890;51.950;7.668;2023-08-07T01:03:34;6.93;;;3.33;;
5730;SDS011;2890;51.950;7.668;2023-08-07T01:06:01;4.10;;;3.70;;
5730;SDS011;2890;51.950;7.668;2023-08-07T01:08:27;3.90;;;3.33;;
5730;SDS011;2890;51.950;7.668;2023-08-07T01:11:01;6.20;;;3.73;;
5730;SDS011;2890;51.950;7.668;2023-08-07T01:13:35;5.93;;;3.80;;
5730;SDS011;2890;51.950;7.668;2023-08-07T01:16:05;5.60;;;3.47;;
5730;SDS011;2890;51.950;7.668;2023-08-07T01:18:37;3.43;;;3.13;;
5730;SDS011;2890;51.950;7.668;2023-08-07T01:21:04;3.57;;;3.27;;
5730;SDS011;2890;51.950;7.668;2023-08-07T01:23:32;7.67;;;3.40;;
5730;SDS011;2890;51.950;7.668;2023-08-07T01:25:59;5.30;;;3.70;;
5730;SDS011;2890;51.950;7.668;2023-08-07T01:28:26;4.90;;;3.90;;
5730;SDS011;2890;51.950;7.668;2023-08-07T01:30:54;4.03;;;3.50;;
5730;SDS011;2890;51.950;7.668;2023-08-07T01:33:24;7.50;;;4.80;;
5730;SDS011;2890;51.950;7.668;2023-08-07T01:35:55;15.03;;;5.00;;
5730;SDS011;2890;51.950;7.668;2023-08-07T01:38:24;6.10;;;5.60;;
5730;SDS011;2890;51.950;7.668;2023-08-07T01:40:52;6.50;;;5.90;;
5730;SDS011;2890;51.950;7.668;2023-08-07T01:43:19;6.80;;;6.10;;
5730;SDS011;2890;51.950;7.668;2023-08-07T01:45:46;12.40;;;6.57;;
5730;SDS011;2890;51.950;7.668;2023-08-07T01:48:12;17.90;;;8.03;;
5730;SDS011;2890;51.950;7.668;2023-08-07T01:50:39;13.00;;;8.07;;
5730;SDS011;2890;51.950;7.668;2023-08-07T01:53:06;18.43;;;9.30;;
5730;SDS011;2890;51.950;7.668;2023-08-07T01:55:32;16.80;;;10.17;;
5730;SDS011;2890;51.950;7.668;2023-08-07T01:58:00;14.47;;;10.33;;
5730;SDS011;2890;51.950;7.668;2023-08-07T02:00:27;14.87;;;9.63;;
5730;SDS011;2890;51.950;7.668;2023-08-07T02:02:54;23.43;;;11.80;;
5730;SDS011;2890;51.950;7.668;2023-08-07T02:05:20;21.63;;;11.70;;
5730;SDS011;2890;51.950;7.668;2023-08-07T02:07:47;18.30;;;10.17;;
5730;SDS011;2890;51.950;7.668;2023-08-07T02:10:13;18.33;;;10.27;;
5730;SDS011;2890;51.950;7.668;2023-08-07T02:12:39;24.87;;;10.67;;
5730;SDS011;2890;51.950;7.668;2023-08-07T02:15:08;12.27;;;7.73;;
5730;SDS011;2890;51.950;7.668;2023-08-07T02:17:35;12.73;;;8.13;;
5730;SDS011;2890;51.950;7.668;2023-08-07T02:20:06;13.50;;;7.30;;
5730;SDS011;2890;51.950;7.668;2023-08-07T02:22:33;10.70;;;7.43;;
5730;SDS011;2890;51.950;7.668;2023-08-07T02:25:00;12.70;;;8.80;;
5730;SDS011;2890;51.950;7.668;2023-08-07T02:27:26;10.70;;;7.83;;
5730;SDS011;2890;51.950;7.668;2023-08-07T02:29:53;8.43;;;7.50;;
5730;SDS011;2890;51.950;7.668;2023-08-07T02:32:21;8.97;;;7.20;;
5730;SDS011;2890;51.950;7.668;2023-08-07T02:34:47;12.63;;;8.10;;
5730;SDS011;2890;51.950;7.668;2023-08-07T02:37:14;8.87;;;7.30;;
5730;SDS011;2890;51.950;7.668;2023-08-07T02:39:40;6.53;;;6.03;;
5730;SDS011;2890;51.950;7.668;2023-08-07T02:42:07;7.83;;;7.13;;
5730;SDS011;2890;51.950;7.668;2023-08-07T02:44:33;6.90;;;6.40;;
5730;SDS011;2890;51.950;7.668;2023-08-07T02:47:00;8.20;;;6.57;;
5730;SDS011;2890;51.950;7.668;2023-08-07T02:49:28;6.03;;;5.60;;
5730;SDS011;2890;51.950;7.668;2023-08-07T02:51:54;5.77;;;5.00;;
5730;SDS011;2890;51.950;7.668;2023-08-07T02:54:21;4.47;;;4.07;;
5730;SDS011;2890;51.950;7.668;2023-08-07T02:56:47;4.90;;;3.57;;
5730;SDS011;2890;51.950;7.668;2023-08-07T02:59:14;4.40;;;3.90;;
5730;SDS011;2890;51.950;7.668;2023-08-07T03:01:41;4.73;;;3.77;;
5730;SDS011;2890;51.950;7.668;2023-08-07T03:04:09;4.13;;;3.23;;
5730;SDS011;2890;51.950;7.668;2023-08-07T03:06:37;5.77;;;4.10;;
5730;SDS011;2890;51.950;7.668;2023-08-07T03:09:03;9.73;;;4.20;;
5730;SDS011;2890;51.950;7.668;2023-08-07T03:11:30;3.47;;;3.20;;
5730;SDS011;2890;51.950;7.668;2023-08-07T03:13:56;6.10;;;3.60;;
5730;SDS011;2890;51.950;7.668;2023-08-07T03:16:23;4.20;;;3.50;;
5730;SDS011;2890;51.950;7.668;2023-08-07T03:18:49;4.83;;;4.13;;
5730;SDS011;2890;51.950;7.668;2023-08-07T03:21:16;5.13;;;3.87;;
5730;SDS011;2890;51.950;7.668;2023-08-07T03:23:44;4.47;;;4.07;;
5730;SDS011;2890;51.950;7.668;2023-08-07T03:26:11;4.50;;;3.90;;
5730;SDS011;2890;51.950;7.668;2023-08-07T03:28:39;6.67;;;4.40;;
5730;SDS011;2890;51.950;7.668;2023-08-07T03:31:05;6.70;;;4.20;;
5730;SDS011;2890;51.950;7.668;2023-08-07T03:33:32;4.73;;;4.23;;
5730;SDS011;2890;51.950;7.668;2023-08-07T03:35:58;8.13;;;4.47;;
5730;SDS011;2890;51.950;7.668;2023-08-07T03:38:25;5.43;;;4.27;;
5730;SDS011;2890;51.950;7.668;2023-08-07T03:40:53;6.80;;;4.00;;
5730;SDS011;2890;51.950;7.668;2023-08-07T03:43:19;4.37;;;3.83;;
5730;SDS011;2890;51.950;7.668;2023-08-07T03:45:46;4.00;;;2.87;;
5730;SDS011;2890;51.950;7.668;2023-08-07T03:48:13;8.20;;;4.07;;
5730;SDS011;2890;51.950;7.668;2023-08-07T03:50:39;3.40;;;3.10;;
5730;SDS011;2890;51.950;7.668;2023-08-07T03:53:06;6.30;;;2.90;;
5730;SDS011;2890;51.950;7.668;2023-08-07T03:55:32;3.70;;;2.53;;
5730;SDS011;2890;51.950;7.668;2023-08-07T03:58:00;3.20;;;2.73;;
5730;SDS011;2890;51.950;7.668;2023-08-07T04:00:27;5.70;;;3.67;;
5730;SDS011;2890;51.950;7.668;2023-08-07T04:02:53;5.93;;;2.80;;
5730;SDS011;2890;51.950;7.668;2023-08-07T04:05:20;4.17;;;2.20;;
5730;SDS011;2890;51.950;7.668;2023-08-07T04:07:46;4.47;;;2.87;;
5730;SDS011;2890;51.950;7.668;2023-08-07T04:10:13;3.37;;;2.40;;
5730;SDS011;2890;51.950;7.668;2023-08-07T04:12:39;3.30;;;2.37;;
5730;SDS011;2890;51.950;7.668;2023-08-07T04:15:08;5.97;;;2.80;;
5730;SDS011;2890;51.950;7.668;2023-08-07T04:17:35;6.00;;;3.20;;
5730;SDS011;2890;51.950;7.668;2023-08-07T04:20:02;4.23;;;3.47;;
5730;SDS011;2890;51.950;7.668;2023-08-07T04:22:29;7.50;;;4.20;;
5730;SDS011;2890;51.950;7.668;2023-08-07T04:24:56;6.07;;;3.80;;
5730;SDS011;2890;51.950;7.668;2023-08-07T04:27:22;5.43;;;4.30;;
5730;SDS011;2890;51.950;7.668;2023-08-07T04:29:49;7.53;;;4.40;;
5730;SDS011;2890;51.950;7.668;2023-08-07T04:32:17;5.00;;;3.67;;
5730;SDS011;2890;51.950;7.668;2023-08-07T04:34:43;7.13;;;4.10;;
5730;SDS011;2890;51.950;7.668;2023-08-07T04:37:10;3.33;;;2.90;;
5730;SDS011;2890;51.950;7.668;2023-08-07T04:39:36;4.73;;;3.43;;
5730;SDS011;2890;51.950;7.668;2023-08-07T04:42:03;4.70;;;3.67;;
5730;SDS011;2890;51.950;7.668;2023-08-07T04:44:30;5.90;;;3.30;;
5730;SDS011;2890;51.950;7.668;2023-08-07T04:46:56;6.67;;;3.83;;
5730;SDS011;2890;51.950;7.668;2023-08-07T04:49:24;5.03;;;3.60;;
5730;SDS011;2890;51.950;7.668;2023-08-07T04:51:51;4.87;;;4.03;;
5730;SDS011;2890;51.950;7.668;2023-08-07T04:54:17;5.97;;;3.90;;
5730;SDS011;2890;51.950;7.668;2023-08-07T04:56:43;3.10;;;2.53;;
5730;SDS011;2890;51.950;7.668;2023-08-07T04:59:10;3.33;;;2.50;;
5730;SDS011;2890;51.950;7.668;2023-08-07T05:01:36;5.93;;;2.90;;
5730;SDS011;2890;51.950;7.668;2023-08-07T05:04:05;4.00;;;2.90;;
5730;SDS011;2890;51.950;7.668;2023-08-07T05:06:33;4.53;;;2.80;;
5730;SDS011;2890;51.950;7.668;2023-08-07T05:08:59;2.77;;;2.30;;
5730;SDS011;2890;51.950;7.668;2023-08-07T05:11:26;3.17;;;2.40;;
5730;SDS011;2890;51.950;7.668;2023-08-07T05:13:52;2.63;;;2.23;;
5730;SDS011;2890;51.950;7.668;2023-08-07T05:16:18;3.97;;;2.00;;
5730;SDS011;2890;51.950;7.668;2023-08-07T05:18:45;3.70;;;1.90;;
5730;SDS011;2890;51.950;7.668;2023-08-07T05:21:12;2.50;;;1.97;;
5730;SDS011;2890;51.950;7.668;2023-08-07T05:23:39;2.57;;;1.87;;
5730;SDS011;2890;51.950;7.668;2023-08-07T05:26:06;2.80;;;2.07;;
5730;SDS011;2890;51.950;7.668;2023-08-07T05:28:32;3.50;;;2.23;;
5730;SDS011;2890;51.950;7.668;2023-08-07T05:30:59;6.07;;;2.43;;
5730;SDS011;2890;51.950;7.668;2023-08-07T05:33:25;4.43;;;1.93;;
5730;SDS011;2890;51.950;7.668;2023-08-07T05:35:52;4.23;;;2.30;;
5730;SDS011;2890;51.950;7.668;2023-08-07T05:38:20;4.03;;;2.23;;
5730;SDS011;2890;51.950;7.668;2023-08-07T05:40:48;4.77;;;2.10;;
5730;SDS011;2890;51.950;7.668;2023-08-07T05:43:14;4.20;;;2.50;;
5730;SDS011;2890;51.950;7.668;2023-08-07T05:45:42;7.87;;;2.70;;
5730;SDS011;2890;51.950;7.668;2023-08-07T05:48:10;6.10;;;2.57;;
5730;SDS011;2890;51.950;7.668;2023-08-07T05:50:36;8.83;;;3.13;;
5730;SDS011;2890;51.950;7.668;2023-08-07T05:53:03;8.33;;;3.13;;
5730;SDS011;2890;51.950;7.668;2023-08-07T05:55:29;5.93;;;2.70;;
5730;SDS011;2890;51.950;7.668;2023-08-07T05:57:57;5.47;;;3.43;;
5730;SDS011;2890;51.950;7.668;2023-08-07T06:00:24;6.73;;;3.80;;
5730;SDS011;2890;51.950;7.668;2023-08-07T06:02:50;4.90;;;2.63;;
5730;SDS011;2890;51.950;7.668;2023-08-07T06:05:17;8.47;;;3.30;;
5730;SDS011;2890;51.950;7.668;2023-08-07T06:07:43;8.97;;;3.60;;
5730;SDS011;2890;51.950;7.668;2023-08-07T06:10:10;4.97;;;3.10;;
5730;SDS011;2890;51.950;7.668;2023-08-07T06:12:36;7.63;;;3.23;;
5730;SDS011;2890;51.950;7.668;2023-08-07T06:15:05;4.70;;;3.20;;
5730;SDS011;2890;51.950;7.668;2023-08-07T06:17:32;4.60;;;3.40;;
5730;SDS011;2890;51.950;7.668;2023-08-07T06:19:58;7.97;;;3.20;;
5730;SDS011;2890;51.950;7.668;2023-08-07T06:22:25;5.07;;;3.50;;
5730;SDS011;2890;51.950;7.668;2023-08-07T06:24:51;8.77;;;3.27;;
5730;SDS011;2890;51.950;7.668;2023-08-07T06:27:20;4.93;;;3.17;;
5730;SDS011;2890;51.950;7.668;2023-08-07T06:29:47;7.57;;;3.47;;
5730;SDS011;2890;51.950;7.668;2023-08-07T06:32:15;6.33;;;3.30;;
5730;SDS011;2890;51.950;7.668;2023-08-07T06:34:43;5.20;;;3.03;;
5730;SDS011;2890;51.950;7.668;2023-08-07T06:37:11;12.63;;;3.47;;
5730;SDS011;2890;51.950;7.668;2023-08-07T06:39:38;15.07;;;4.07;;
5730;SDS011;2890;51.950;7.668;2023-08-07T06:42:07;6.23;;;3.73;;
5730;SDS011;2890;51.950;7.668;2023-08-07T06:44:34;5.40;;;3.67;;
5730;SDS011;2890;51.950;7.668;2023-08-07T06:47:00;9.47;;;3.90;;
5730;SDS011;2890;51.950;7.668;2023-08-07T06:49:28;7.60;;;4.13;;
5730;SDS011;2890;51.950;7.668;2023-08-07T06:51:56;6.73;;;3.97;;
5730;SDS011;2890;51.950;7.668;2023-08-07T06:54:23;8.67;;;3.60;;
5730;SDS011;2890;51.950;7.668;2023-08-07T06:56:49;6.00;;;4.03;;
5730;SDS011;2890;51.950;7.668;2023-08-07T06:59:16;5.70;;;3.67;;
5730;SDS011;2890;51.950;7.668;2023-08-07T07:01:43;10.57;;;3.90;;
5730;SDS011;2890;51.950;7.668;2023-08-07T07:04:09;6.17;;;3.27;;
5730;SDS011;2890;51.950;7.668;2023-08-07T07:06:38;10.50;;;6.77;;
5730;SDS011;2890;51.950;7.668;2023-08-07T07:09:04;9.30;;;4.27;;
5730;SDS011;2890;51.950;7.668;2023-08-07T07:11:31;7.57;;;4.67;;
5730;SDS011;2890;51.950;7.668;2023-08-07T07:13:57;5.90;;;4.00;;
5730;SDS011;2890;51.950;7.668;2023-08-07T07:16:24;8.40;;;4.10;;
5730;SDS011;2890;51.950;7.668;2023-08-07T07:18:50;5.33;;;4.30;;
5730;SDS011;2890;51.950;7.668;2023-08-07T07:21:17;9.40;;;4.63;;
5730;SDS011;2890;51.950;7.668;2023-08-07T07:23:45;8.57;;;3.50;;
5730;SDS011;2890;51.950;7.668;2023-08-07T07:26:11;6.43;;;4.50;;
5730;SDS011;2890;51.950;7.668;2023-08-07T07:28:37;6.80;;;4.50;;
5730;SDS011;2890;51.950;7.668;2023-08-07T07:31:04;21.00;;;5.87;;
5730;SDS011;2890;51.950;7.668;2023-08-07T07:33:33;8.67;;;5.37;;
5730;SDS011;2890;51.950;7.668;2023-08-07T07:36:01;8.63;;;4.37;;
5730;SDS011;2890;51.950;7.668;2023-08-07T07:38:27;6.33;;;4.13;;
5730;SDS011;2890;51.950;7.668;2023-08-07T07:40:55;10.97;;;4.10;;
5730;SDS011;2890;51.950;7.668;2023-08-07T07:43:22;8.90;;;3.60;;
5730;SDS011;2890;51.950;7.668;2023-08-07T07:45:49;6.67;;;3.90;;
5730;SDS011;2890;51.950;7.668;2023-08-07T07:48:16;8.27;;;4.23;;
5730;SDS011;2890;51.950;7.668;2023-08-07T07:50:42;6.33;;;3.50;;
5730;SDS011;2890;51.950;7.668;2023-08-07T07:53:09;8.17;;;4.10;;
5730;SDS011;2890;51.950;7.668;2023-08-07T07:55:35;8.50;;;4.03;;
5730;SDS011;2890;51.950;7.668;2023-08-07T07:58:04;7.27;;;3.80;;
5730;SDS011;2890;51.950;7.668;2023-08-07T08:00:31;9.03;;;4.10;;
5730;SDS011;2890;51.950;7.668;2023-08-07T08:02:57;6.50;;;3.50;;
5730;SDS011;2890;51.950;7.668;2023-08-07T08:05:24;3.10;;;2.67;;
5730;SDS011;2890;51.950;7.668;2023-08-07T08:07:51;4.57;;;2.77;;
5730;SDS011;2890;51.950;7.668;2023-08-07T08:10:17;4.53;;;3.10;;
5730;SDS011;2890;51.950;7.668;2023-08-07T08:12:44;5.30;;;2.87;;
5730;SDS011;2890;51.950;7.668;2023-08-07T08:15:12;5.90;;;2.80;;
5730;SDS011;2890;51.950;7.668;2023-08-07T08:17:38;5.77;;;3.10;;
5730;SDS011;2890;51.950;7.668;2023-08-07T08:20:05;7.87;;;3.60;;
5730;SDS011;2890;51.950;7.668;2023-08-07T08:22:32;9.13;;;4.00;;
5730;SDS011;2890;51.950;7.668;2023-08-07T08:24:59;14.23;;;10.00;;
5730;SDS011;2890;51.950;7.668;2023-08-07T08:27:25;6.90;;;4.40;;
5730;SDS011;2890;51.950;7.668;2023-08-07T08:29:52;6.33;;;3.90;;
5730;SDS011;2890;51.950;7.668;2023-08-07T08:32:20;8.73;;;3.67;;
5730;SDS011;2890;51.950;7.668;2023-08-07T08:34:46;5.90;;;2.57;;
5730;SDS011;2890;51.950;7.668;2023-08-07T08:37:14;7.20;;;3.10;;
5730;SDS011;2890;51.950;7.668;2023-08-07T08:39:41;7.20;;;3.57;;
5730;SDS011;2890;51.950;7.668;2023-08-07T08:42:08;7.57;;;3.27;;
5730;SDS011;2890;51.950;7.668;2023-08-07T08:44:37;8.90;;;3.50;;
5730;SDS011;2890;51.950;7.668;2023-08-07T08:47:05;10.20;;;4.40;;
5730;SDS011;2890;51.950;7.668;2023-08-07T08:49:35;8.23;;;4.53;;
5730;SDS011;2890;51.950;7.668;2023-08-07T08:52:02;7.23;;;4.00;;
5730;SDS011;2890;51.950;7.668;2023-08-07T08:54:29;11.13;;;4.70;;
5730;SDS011;2890;51.950;7.668;2023-08-07T08:56:56;10.63;;;5.00;;
5730;SDS011;2890;51.950;7.668;2023-08-07T08:59:24;14.43;;;4.90;;
5730;SDS011;2890;51.950;7.668;2023-08-07T09:01:51;15.83;;;5.20;;
5730;SDS011;2890;51.950;7.668;2023-08-07T09:04:18;21.00;;;5.80;;
5730;SDS011;2890;51.950;7.668;2023-08-07T09:06:46;16.97;;;6.17;;
5730;SDS011;2890;51.950;7.668;2023-08-07T09:09:13;11.00;;;5.40;;
5730;SDS011;2890;51.950;7.668;2023-08-07T09:11:40;15.77;;;7.53;;
5730;SDS011;2890;51.950;7.668;2023-08-07T09:14:08;8.47;;;4.53;;
5730;SDS011;2890;51.950;7.668;2023-08-07T09:16:36;12.40;;;5.70;;
5730;SDS011;2890;51.950;7.668;2023-08-07T09:19:02;7.33;;;4.20;;
5730;SDS011;2890;51.950;7.668;2023-08-07T09:21:29;9.17;;;3.97;;
5730;SDS011;2890;51.950;7.668;2023-08-07T09:23:57;12.00;;;4.40;;
5730;SDS011;2890;51.950;7.668;2023-08-07T09:26:23;5.97;;;3.60;;
5730;SDS011;2890;51.950;7.668;2023-08-07T09:28:51;7.50;;;3.80;;
5730;SDS011;2890;51.950;7.668;2023-08-07T09:31:18;9.37;;;3.10;;
5730;SDS011;2890;51.950;7.668;2023-08-07T09:33:46;8.33;;;3.90;;
5730;SDS011;2890;51.950;7.668;2023-08-07T09:36:13;11.80;;;3.37;;
5730;SDS011;2890;51.950;7.668;2023-08-07T09:38:39;6.33;;;3.20;;
5730;SDS011;2890;51.950;7.668;2023-08-07T09:41:07;6.90;;;3.13;;
5730;SDS011;2890;51.950;7.668;2023-08-07T09:43:33;5.50;;;3.03;;
5730;SDS011;2890;51.950;7.668;2023-08-07T09:46:03;9.43;;;3.70;;
5730;SDS011;2890;51.950;7.668;2023-08-07T09:48:30;6.03;;;3.23;;
5730;SDS011;2890;51.950;7.668;2023-08-07T09:50:59;7.30;;;3.10;;
5730;SDS011;2890;51.950;7.668;2023-08-07T09:53:27;6.07;;;3.00;;
5730;SDS011;2890;51.950;7.668;2023-08-07T09:55:55;6.00;;;3.27;;
5730;SDS011;2890;51.950;7.668;2023-08-07T09:58:23;6.77;;;2.97;;
5730;SDS011;2890;51.950;7.668;2023-08-07T10:00:50;5.53;;;3.13;;
5730;SDS011;2890;51.950;7.668;2023-08-07T10:03:18;6.57;;;3.37;;
5730;SDS011;2890;51.950;7.668;2023-08-07T10:05:45;7.13;;;3.20;;
5730;SDS011;2890;51.950;7.668;2023-08-07T10:08:12;8.50;;;2.60;;
5730;SDS011;2890;51.950;7.668;2023-08-07T10:10:39;6.60;;;3.17;;
5730;SDS011;2890;51.950;7.668;2023-08-07T10:13:06;5.10;;;2.93;;
5730;SDS011;2890;51.950;7.668;2023-08-07T10:15:34;11.80;;;4.13;;
5730;SDS011;2890;51.950;7.668;2023-08-07T10:18:00;7.07;;;3.40;;
5730;SDS011;2890;51.950;7.668;2023-08-07T10:20:27;8.83;;;3.20;;
5730;SDS011;2890;51.950;7.668;2023-08-07T10:22:56;5.20;;;3.40;;
5730;SDS011;2890;51.950;7.668;2023-08-07T10:25:26;7.50;;;3.60;;
5730;SDS011;2890;51.950;7.668;2023-08-07T10:27:53;12.37;;;3.43;;
5730;SDS011;2890;51.950;7.668;2023-08-07T10:30:22;5.23;;;3.07;;
5730;SDS011;2890;51.950;7.668;2023-08-07T10:32:50;7.30;;;2.63;;
5730;SDS011;2890;51.950;7.668;2023-08-07T10:35:24;4.27;;;2.90;;
5730;SDS011;2890;51.950;7.668;2023-08-07T10:37:51;6.43;;;3.07;;
5730;SDS011;2890;51.950;7.668;2023-08-07T10:40:18;5.43;;;2.57;;
5730;SDS011;2890;51.950;7.668;2023-08-07T10:42:55;5.07;;;3.20;;
5730;SDS011;2890;51.950;7.668;2023-08-07T10:45:22;38.00;;;5.73;;
5730;SDS011;2890;51.950;7.668;2023-08-07T10:48:10;212.37;;;16.17;;
5730;SDS011;2890;51.950;7.668;2023-08-07T10:50:48;12.20;;;4.80;;
5730;SDS011;2890;51.950;7.668;2023-08-07T10:53:18;22.97;;;5.20;;
5730;SDS011;2890;51.950;7.668;2023-08-07T10:55:46;23.67;;;4.93;;
5730;SDS011;2890;51.950;7.668;2023-08-07T10:58:25;12.00;;;6.10;;
5730;SDS011;2890;51.950;7.668;2023-08-07T11:00:52;11.43;;;4.70;;
5730;SDS011;2890;51.950;7.668;2023-08-07T11:03:49;12.97;;;5.13;;
5730;SDS011;2890;51.950;7.668;2023-08-07T11:06:17;10.40;;;5.20;;
5730;SDS011;2890;51.950;7.668;2023-08-07T11:08:43;10.73;;;4.07;;
5730;SDS011;2890;51.950;7.668;2023-08-07T11:11:10;4.90;;;3.90;;
5730;SDS011;2890;51.950;7.668;2023-08-07T11:13:36;5.50;;;3.63;;
5730;SDS011;2890;51.950;7.668;2023-08-07T11:16:03;15.30;;;9.63;;
5730;SDS011;2890;51.950;7.668;2023-08-07T11:18:30;9.17;;;4.70;;
5730;SDS011;2890;51.950;7.668;2023-08-07T11:20:58;7.53;;;4.03;;
5730;SDS011;2890;51.950;7.668;2023-08-07T11:23:26;8.73;;;4.00;;
5730;SDS011;2890;51.950;7.668;2023-08-07T11:25:53;4.30;;;3.50;;
5730;SDS011;2890;51.950;7.668;2023-08-07T11:28:20;4.87;;;3.30;;
5730;SDS011;2890;51.950;7.668;2023-08-07T11:30:48;3.77;;;2.80;;
5730;SDS011;2890;51.950;7.668;2023-08-07T11:33:17;5.60;;;3.10;;
5730;SDS011;2890;51.950;7.668;2023-08-07T11:35:43;7.03;;;3.07;;
5730;SDS011;2890;51.950;7.668;2023-08-07T11:38:11;8.10;;;3.90;;
5730;SDS011;2890;51.950;7.668;2023-08-07T11:40:38;9.10;;;3.40;;
5730;SDS011;2890;51.950;7.668;2023-08-07T11:43:04;5.30;;;3.53;;
5730;SDS011;2890;51.950;7.668;2023-08-07T11:45:31;4.53;;;3.50;;
5730;SDS011;2890;51.950;7.668;2023-08-07T11:47:57;5.00;;;2.93;;
5730;SDS011;2890;51.950;7.668;2023-08-07T11:50:24;4.93;;;2.87;;
5730;SDS011;2890;51.950;7.668;2023-08-07T11:52:51;5.27;;;3.10;;
5730;SDS011;2890;51.950;7.668;2023-08-07T11:55:19;4.43;;;3.00;;
5730;SDS011;2890;51.950;7.668;2023-08-07T11:57:46;6.57;;;2.90;;
5730;SDS011;2890;51.950;7.668;2023-08-07T12:00:12;10.60;;;2.80;;
5730;SDS011;2890;51.950;7.668;2023-08-07T12:02:41;5.97;;;2.60;;
5730;SDS011;2890;51.950;7.668;2023-08-07T12:05:08;8.23;;;2.73;;
5730;SDS011;2890;51.950;7.668;2023-08-07T12:07:36;5.57;;;3.23;;
5730;SDS011;2890;51.950;7.668;2023-08-07T12:10:03;5.07;;;2.93;;
5730;SDS011;2890;51.950;7.668;2023-08-07T12:12:33;7.70;;;2.40;;
5730;SDS011;2890;51.950;7.668;2023-08-07T12:15:00;3.83;;;2.03;;
5730;SDS011;2890;51.950;7.668;2023-08-07T12:17:29;7.03;;;2.43;;
5730;SDS011;2890;51.950;7.668;2023-08-07T12:19:57;4.50;;;2.33;;
5730;SDS011;2890;51.950;7.668;2023-08-07T12:22:24;6.20;;;2.23;;
5730;SDS011;2890;51.950;7.668;2023-08-07T12:24:53;6.73;;;2.67;;
5730;SDS011;2890;51.950;7.668;2023-08-07T12:27:19;5.40;;;2.80;;
5730;SDS011;2890;51.950;7.668;2023-08-07T12:29:47;4.80;;;2.73;;
5730;SDS011;2890;51.950;7.668;2023-08-07T12:32:14;3.60;;;2.53;;
5730;SDS011;2890;51.950;7.668;2023-08-07T12:34:40;9.67;;;2.37;;
5730;SDS011;2890;51.950;7.668;2023-08-07T12:37:07;6.53;;;2.73;;
5730;SDS011;2890;51.950;7.668;2023-08-07T12:39:34;4.47;;;2.30;;
5730;SDS011;2890;51.950;7.668;2023-08-07T12:42:00;5.23;;;2.40;;
5730;SDS011;2890;51.950;7.668;2023-08-07T12:44:28;5.10;;;2.77;;
5730;SDS011;2890;51.950;7.668;2023-08-07T12:46:56;4.00;;;2.33;;
5730;SDS011;2890;51.950;7.668;2023-08-07T12:49:23;6.40;;;2.80;;
5730;SDS011;2890;51.950;7.668;2023-08-07T12:51:50;5.07;;;3.40;;
5730;SDS011;2890;51.950;7.668;2023-08-07T12:54:16;6.40;;;3.00;;
5730;SDS011;2890;51.950;7.668;2023-08-07T12:56:43;6.73;;;2.40;;
5730;SDS011;2890;51.950;7.668;2023-08-07T12:59:09;3.80;;;3.10;;
5730;SDS011;2890;51.950;7.668;2023-08-07T13:01:36;5.13;;;2.27;;
5730;SDS011;2890;51.950;7.668;2023-08-07T13:04:04;5.40;;;2.40;;
5730;SDS011;2890;51.950;7.668;2023-08-07T13:06:33;7.07;;;2.50;;
5730;SDS011;2890;51.950;7.668;2023-08-07T13:08:59;3.30;;;2.60;;
5730;SDS011;2890;51.950;7.668;2023-08-07T13:11:26;4.07;;;2.37;;
5730;SDS011;2890;51.950;7.668;2023-08-07T13:13:53;4.20;;;2.77;;
5730;SDS011;2890;51.950;7.668;2023-08-07T13:16:19;5.77;;;2.83;;
5730;SDS011;2890;51.950;7.668;2023-08-07T13:18:46;5.30;;;2.50;;
5730;SDS011;2890;51.950;7.668;2023-08-07T13:21:14;3.00;;;2.57;;
5730;SDS011;2890;51.950;7.668;2023-08-07T13:23:40;5.00;;;2.50;;
5730;SDS011;2890;51.950;7.668;2023-08-07T13:26:07;6.20;;;2.33;;
5730;SDS011;2890;51.950;7.668;2023-08-07T13:28:33;4.87;;;2.60;;
5730;SDS011;2890;51.950;7.668;2023-08-07T13:31:00;9.07;;;2.53;;
5730;SDS011;2890;51.950;7.668;2023-08-07T13:33:26;7.00;;;2.70;;
5730;SDS011;2890;51.950;7.668;2023-08-07T13:35:53;10.27;;;2.57;;
5730;SDS011;2890;51.950;7.668;2023-08-07T13:38:21;5.37;;;2.60;;
5730;SDS011;2890;51.950;7.668;2023-08-07T13:40:47;3.47;;;2.30;;
5730;SDS011;2890;51.950;7.668;2023-08-07T13:43:14;4.70;;;2.40;;
5730;SDS011;2890;51.950;7.668;2023-08-07T13:45:40;7.80;;;2.73;;
5730;SDS011;2890;51.950;7.668;2023-08-07T13:48:07;5.03;;;2.53;;
5730;SDS011;2890;51.950;7.668;2023-08-07T13:50:35;3.00;;;2.57;;
5730;SDS011;2890;51.950;7.668;2023-08-07T13:53:03;3.57;;;2.30;;
5730;SDS011;2890;51.950;7.668;2023-08-07T13:55:31;7.37;;;3.27;;
5730;SDS011;2890;51.950;7.668;2023-08-07T13:57:57;5.80;;;3.00;;
5730;SDS011;2890;51.950;7.668;2023-08-07T14:00:24;7.80;;;3.20;;
5730;SDS011;2890;51.950;7.668;2023-08-07T14:02:51;6.40;;;2.50;;
5730;SDS011;2890;51.950;7.668;2023-08-07T14:05:17;5.20;;;3.00;;
5730;SDS011;2890;51.950;7.668;2023-08-07T14:07:44;4.90;;;2.43;;
5730;SDS011;2890;51.950;7.668;2023-08-07T14:10:10;3.93;;;2.33;;
5730;SDS011;2890;51.950;7.668;2023-08-07T14:12:38;4.13;;;2.50;;
5730;SDS011;2890;51.950;7.668;2023-08-07T14:15:05;6.10;;;2.90;;
5730;SDS011;2890;51.950;7.668;2023-08-07T14:17:32;5.50;;;2.40;;
5730;SDS011;2890;51.950;7.668;2023-08-07T14:19:58;3.47;;;2.53;;
5730;SDS011;2890;51.950;7.668;2023-08-07T14:22:25;5.43;;;2.40;;
5730;SDS011;2890;51.950;7.668;2023-08-07T14:24:51;4.40;;;2.90;;
5730;SDS011;2890;51.950;7.668;2023-08-07T14:27:18;4.47;;;2.10;;
5730;SDS011;2890;51.950;7.668;2023-08-07T14:29:45;6.80;;;2.20;;
5730;SDS011;2890;51.950;7.668;2023-08-07T14:32:12;6.90;;;2.23;;
5730;SDS011;2890;51.950;7.668;2023-08-07T14:34:38;4.00;;;2.57;;
5730;SDS011;2890;51.950;7.668;2023-08-07T14:37:05;6.23;;;2.37;;
5730;SDS011;2890;51.950;7.668;2023-08-07T14:39:31;4.10;;;2.00;;
5730;SDS011;2890;51.950;7.668;2023-08-07T14:41:58;3.40;;;2.17;;
5730;SDS011;2890;51.950;7.668;2023-08-07T14:44:24;4.63;;;2.00;;
5730;SDS011;2890;51.950;7.668;2023-08-07T14:46:52;3.70;;;2.20;;
5730;SDS011;2890;51.950;7.668;2023-08-07T14:49:19;3.07;;;2.23;;
5730;SDS011;2890;51.950;7.668;2023-08-07T14:51:45;2.53;;;2.17;;
5730;SDS011;2890;51.950;7.668;2023-08-07T14:54:12;3.70;;;2.40;;
5730;SDS011;2890;51.950;7.668;2023-08-07T14:56:38;3.03;;;2.07;;
5730;SDS011;2890;51.950;7.668;2023-08-07T14:59:06;4.97;;;2.33;;
5730;SDS011;2890;51.950;7.668;2023-08-07T15:01:33;4.63;;;2.30;;
5730;SDS011;2890;51.950;7.668;2023-08-07T15:04:01;5.20;;;2.23;;
5730;SDS011;2890;51.950;7.668;2023-08-07T15:06:27;4.40;;;2.23;;
5730;SDS011;2890;51.950;7.668;2023-08-07T15:08:54;5.40;;;2.30;;
5730;SDS011;2890;51.950;7.668;2023-08-07T15:11:20;5.53;;;2.40;;
5730;SDS011;2890;51.950;7.668;2023-08-07T15:13:47;4.00;;;2.97;;